sensor_id;sensor_type;location;lat;lon;timestamp;temperature;humidity
31542;DHT22;18152;49.986;8.646;2022-07-10T00:02:16;13.70;99.90
31542;DHT22;18152;49.986;8.646;2022-07-10T00:04:42;13.70;99.90
31542;DHT22;18152;49.986;8.646;2022-07-10T00:07:07;13.70;99.90
31542;DHT22;18152;49.986;8.646;2022-07-10T00:09:33;13.60;99.90
31542;DHT22;18152;49.986;8.646;2022-07-10T00:11:58;13.60;99.90
31542;DHT22;18152;49.986;8.646;2022-07-10T00:14:24;13.50;99.90
31542;DHT22;18152;49.986;8.646;2022-07-10T00:16:49;13.60;99.90
31542;DHT22;18152;49.986;8.646;2022-07-10T00:19:15;13.50;99.90
31542;DHT22;18152;49.986;8.646;2022-07-10T00:21:40;13.50;99.90
31542;DHT22;18152;49.986;8.646;2022-07-10T00:24:06;13.50;99.90
31542;DHT22;18152;49.986;8.646;2022-07-10T00:26:32;13.50;99.90
31542;DHT22;18152;49.986;8.646;2022-07-10T00:28:58;13.50;99.90
31542;DHT22;18152;49.986;8.646;2022-07-10T00:31:23;13.40;99.90
31542;DHT22;18152;49.986;8.646;2022-07-10T00:33:49;13.40;99.90
31542;DHT22;18152;49.986;8.646;2022-07-10T00:36:16;13.40;99.90
31542;DHT22;18152;49.986;8.646;2022-07-10T00:38:42;13.30;99.90
31542;DHT22;18152;49.986;8.646;2022-07-10T00:41:07;13.40;99.90
31542;DHT22;18152;49.986;8.646;2022-07-10T00:43:58;13.40;99.90
31542;DHT22;18152;49.986;8.646;2022-07-10T00:46:25;13.40;99.90
31542;DHT22;18152;49.986;8.646;2022-07-10T00:48:51;13.30;99.90
31542;DHT22;18152;49.986;8.646;2022-07-10T00:51:19;13.30;99.90
31542;DHT22;18152;49.986;8.646;2022-07-10T00:53:46;13.30;99.90
31542;DHT22;18152;49.986;8.646;2022-07-10T00:56:16;13.20;99.90
31542;DHT22;18152;49.986;8.646;2022-07-10T00:58:43;13.20;99.90
31542;DHT22;18152;49.986;8.646;2022-07-10T01:01:09;13.10;99.90
31542;DHT22;18152;49.986;8.646;2022-07-10T01:03:35;13.10;99.90
31542;DHT22;18152;49.986;8.646;2022-07-10T01:06:01;13.10;99.90
31542;DHT22;18152;49.986;8.646;2022-07-10T01:08:28;13.00;99.90
31542;DHT22;18152;49.986;8.646;2022-07-10T01:10:53;13.00;99.90
31542;DHT22;18152;49.986;8.646;2022-07-10T01:13:20;13.00;99.90
31542;DHT22;18152;49.986;8.646;2022-07-10T01:15:46;13.00;99.90
31542;DHT22;18152;49.986;8.646;2022-07-10T01:18:13;13.00;99.90
31542;DHT22;18152;49.986;8.646;2022-07-10T01:20:38;13.00;99.90
31542;DHT22;18152;49.986;8.646;2022-07-10T01:23:04;13.00;99.90
31542;DHT22;18152;49.986;8.646;2022-07-10T01:25:29;13.00;99.90
31542;DHT22;18152;49.986;8.646;2022-07-10T01:27:55;13.00;99.90
31542;DHT22;18152;49.986;8.646;2022-07-10T01:30:20;13.00;99.90
31542;DHT22;18152;49.986;8.646;2022-07-10T01:32:47;12.90;99.90
31542;DHT22;18152;49.986;8.646;2022-07-10T01:35:13;12.90;99.90
31542;DHT22;18152;49.986;8.646;2022-07-10T01:37:39;12.90;99.90
31542;DHT22;18152;49.986;8.646;2022-07-10T01:40:06;12.80;99.90
31542;DHT22;18152;49.986;8.646;2022-07-10T01:42:32;12.80;99.90
31542;DHT22;18152;49.986;8.646;2022-07-10T01:44:58;12.80;99.90
31542;DHT22;18152;49.986;8.646;2022-07-10T01:47:23;12.80;99.90
31542;DHT22;18152;49.986;8.646;2022-07-10T01:49:52;12.80;99.90
31542;DHT22;18152;49.986;8.646;2022-07-10T01:52:22;12.90;99.90
31542;DHT22;18152;49.986;8.646;2022-07-10T01:54:48;12.90;99.90
31542;DHT22;18152;49.986;8.646;2022-07-10T01:57:14;13.00;99.90
31542;DHT22;18152;49.986;8.646;2022-07-10T01:59:40;13.00;99.90
31542;DHT22;18152;49.986;8.646;2022-07-10T02:02:06;13.00;99.90
31542;DHT22;18152;49.986;8.646;2022-07-10T02:04:32;13.00;99.90
31542;DHT22;18152;49.986;8.646;2022-07-10T02:07:17;13.00;99.90
31542;DHT22;18152;49.986;8.646;2022-07-10T02:09:45;13.00;99.90
31542;DHT22;18152;49.986;8.646;2022-07-10T02:12:13;13.00;99.90
31542;DHT22;18152;49.986;8.646;2022-07-10T02:14:39;12.90;99.90
31542;DHT22;18152;49.986;8.646;2022-07-10T02:17:06;12.90;99.90
31542;DHT22;18152;49.986;8.646;2022-07-10T02:19:32;12.90;99.90
31542;DHT22;18152;49.986;8.646;2022-07-10T02:21:58;12.80;99.90
31542;DHT22;18152;49.986;8.646;2022-07-10T02:24:24;12.70;99.90
31542;DHT22;18152;49.986;8.646;2022-07-10T02:26:50;12.70;99.90
31542;DHT22;18152;49.986;8.646;2022-07-10T02:29:16;12.60;99.90
31542;DHT22;18152;49.986;8.646;2022-07-10T02:31:41;12.70;99.90
31542;DHT22;18152;49.986;8.646;2022-07-10T02:34:08;12.60;99.90
31542;DHT22;18152;49.986;8.646;2022-07-10T02:36:35;12.60;99.90
31542;DHT22;18152;49.986;8.646;2022-07-10T02:39:02;12.50;99.90
31542;DHT22;18152;49.986;8.646;2022-07-10T02:41:28;12.50;99.90
31542;DHT22;18152;49.986;8.646;2022-07-10T02:43:53;12.50;99.90
31542;DHT22;18152;49.986;8.646;2022-07-10T02:46:19;12.50;99.90
31542;DHT22;18152;49.986;8.646;2022-07-10T02:48:44;12.40;99.90
31542;DHT22;18152;49.986;8.646;2022-07-10T02:51:10;12.40;99.90
31542;DHT22;18152;49.986;8.646;2022-07-10T02:53:36;12.40;99.90
31542;DHT22;18152;49.986;8.646;2022-07-10T02:56:01;12.40;99.90
31542;DHT22;18152;49.986;8.646;2022-07-10T02:58:27;12.40;99.90
31542;DHT22;18152;49.986;8.646;2022-07-10T03:00:53;12.40;99.90
31542;DHT22;18152;49.986;8.646;2022-07-10T03:03:19;12.40;99.90
31542;DHT22;18152;49.986;8.646;2022-07-10T03:05:45;12.40;99.90
31542;DHT22;18152;49.986;8.646;2022-07-10T03:08:11;12.40;99.90
31542;DHT22;18152;49.986;8.646;2022-07-10T03:10:36;12.40;99.90
31542;DHT22;18152;49.986;8.646;2022-07-10T03:13:02;12.50;99.90
31542;DHT22;18152;49.986;8.646;2022-07-10T03:15:28;12.50;99.90
31542;DHT22;18152;49.986;8.646;2022-07-10T03:17:53;12.60;99.90
31542;DHT22;18152;49.986;8.646;2022-07-10T03:20:19;12.60;99.90
31542;DHT22;18152;49.986;8.646;2022-07-10T03:22:45;12.60;99.90
31542;DHT22;18152;49.986;8.646;2022-07-10T03:25:10;12.60;99.90
31542;DHT22;18152;49.986;8.646;2022-07-10T03:27:36;12.50;99.90
31542;DHT22;18152;49.986;8.646;2022-07-10T03:30:02;12.60;99.90
31542;DHT22;18152;49.986;8.646;2022-07-10T03:32:28;12.60;99.90
31542;DHT22;18152;49.986;8.646;2022-07-10T03:34:54;12.60;99.90
31542;DHT22;18152;49.986;8.646;2022-07-10T03:37:20;12.60;99.90
31542;DHT22;18152;49.986;8.646;2022-07-10T03:39:45;12.70;99.90
31542;DHT22;18152;49.986;8.646;2022-07-10T03:42:11;12.60;99.90
31542;DHT22;18152;49.986;8.646;2022-07-10T03:44:37;12.60;99.90
31542;DHT22;18152;49.986;8.646;2022-07-10T03:47:03;12.70;99.90
31542;DHT22;18152;49.986;8.646;2022-07-10T03:49:28;12.70;99.90
31542;DHT22;18152;49.986;8.646;2022-07-10T03:51:54;12.70;99.90
31542;DHT22;18152;49.986;8.646;2022-07-10T03:54:20;12.70;99.90
31542;DHT22;18152;49.986;8.646;2022-07-10T03:56:45;12.70;99.90
31542;DHT22;18152;49.986;8.646;2022-07-10T03:59:29;12.70;99.90
31542;DHT22;18152;49.986;8.646;2022-07-10T04:01:55;12.60;99.90
31542;DHT22;18152;49.986;8.646;2022-07-10T04:04:21;12.60;99.90
31542;DHT22;18152;49.986;8.646;2022-07-10T04:06:46;12.60;99.90
31542;DHT22;18152;49.986;8.646;2022-07-10T04:09:12;12.60;99.90
31542;DHT22;18152;49.986;8.646;2022-07-10T04:11:38;12.60;99.90
31542;DHT22;18152;49.986;8.646;2022-07-10T04:14:04;12.60;99.90
31542;DHT22;18152;49.986;8.646;2022-07-10T04:16:29;12.70;99.90
31542;DHT22;18152;49.986;8.646;2022-07-10T04:18:55;12.70;99.90
31542;DHT22;18152;49.986;8.646;2022-07-10T04:21:21;12.60;99.90
31542;DHT22;18152;49.986;8.646;2022-07-10T04:23:46;12.60;99.90
31542;DHT22;18152;49.986;8.646;2022-07-10T04:26:12;12.60;99.90
31542;DHT22;18152;49.986;8.646;2022-07-10T04:28:37;12.40;99.90
31542;DHT22;18152;49.986;8.646;2022-07-10T04:31:03;12.40;99.90
31542;DHT22;18152;49.986;8.646;2022-07-10T04:33:29;12.60;99.90
31542;DHT22;18152;49.986;8.646;2022-07-10T04:35:54;12.70;99.90
31542;DHT22;18152;49.986;8.646;2022-07-10T04:38:20;12.60;99.90
31542;DHT22;18152;49.986;8.646;2022-07-10T04:40:45;12.60;99.90
31542;DHT22;18152;49.986;8.646;2022-07-10T04:43:11;12.60;99.90
31542;DHT22;18152;49.986;8.646;2022-07-10T04:45:36;12.60;99.90
31542;DHT22;18152;49.986;8.646;2022-07-10T04:48:05;12.60;99.90
31542;DHT22;18152;49.986;8.646;2022-07-10T04:50:31;12.60;99.90
31542;DHT22;18152;49.986;8.646;2022-07-10T04:52:57;12.70;99.90
31542;DHT22;18152;49.986;8.646;2022-07-10T04:55:23;12.70;99.90
31542;DHT22;18152;49.986;8.646;2022-07-10T04:57:49;12.70;99.90
31542;DHT22;18152;49.986;8.646;2022-07-10T05:00:15;12.70;99.90
31542;DHT22;18152;49.986;8.646;2022-07-10T05:02:41;12.80;99.90
31542;DHT22;18152;49.986;8.646;2022-07-10T05:05:07;12.90;99.90
31542;DHT22;18152;49.986;8.646;2022-07-10T05:07:33;12.90;99.90
31542;DHT22;18152;49.986;8.646;2022-07-10T05:09:58;13.00;99.90
31542;DHT22;18152;49.986;8.646;2022-07-10T05:12:24;13.10;99.90
31542;DHT22;18152;49.986;8.646;2022-07-10T05:14:50;13.10;99.90
31542;DHT22;18152;49.986;8.646;2022-07-10T05:17:15;13.30;99.90
31542;DHT22;18152;49.986;8.646;2022-07-10T05:19:41;13.40;99.90
31542;DHT22;18152;49.986;8.646;2022-07-10T05:22:06;13.40;99.90
31542;DHT22;18152;49.986;8.646;2022-07-10T05:24:32;13.50;99.90
31542;DHT22;18152;49.986;8.646;2022-07-10T05:26:58;13.40;99.90
31542;DHT22;18152;49.986;8.646;2022-07-10T05:29:24;13.60;99.90
31542;DHT22;18152;49.986;8.646;2022-07-10T05:31:49;13.60;99.90
31542;DHT22;18152;49.986;8.646;2022-07-10T05:34:15;13.60;99.90
31542;DHT22;18152;49.986;8.646;2022-07-10T05:36:40;13.50;99.90
31542;DHT22;18152;49.986;8.646;2022-07-10T05:39:06;13.60;99.90
31542;DHT22;18152;49.986;8.646;2022-07-10T05:41:32;13.80;99.90
31542;DHT22;18152;49.986;8.646;2022-07-10T05:43:58;13.70;99.90
31542;DHT22;18152;49.986;8.646;2022-07-10T05:46:25;13.80;99.90
31542;DHT22;18152;49.986;8.646;2022-07-10T05:48:50;13.90;99.90
31542;DHT22;18152;49.986;8.646;2022-07-10T05:51:16;14.10;99.90
31542;DHT22;18152;49.986;8.646;2022-07-10T05:53:41;14.30;99.90
31542;DHT22;18152;49.986;8.646;2022-07-10T05:56:07;14.20;99.90
31542;DHT22;18152;49.986;8.646;2022-07-10T05:58:32;14.20;99.90
31542;DHT22;18152;49.986;8.646;2022-07-10T06:00:58;14.20;99.90
31542;DHT22;18152;49.986;8.646;2022-07-10T06:03:24;14.10;99.90
31542;DHT22;18152;49.986;8.646;2022-07-10T06:05:49;14.30;99.90
31542;DHT22;18152;49.986;8.646;2022-07-10T06:08:15;14.20;99.90
31542;DHT22;18152;49.986;8.646;2022-07-10T06:10:41;14.30;99.90
31542;DHT22;18152;49.986;8.646;2022-07-10T06:13:09;14.30;99.90
31542;DHT22;18152;49.986;8.646;2022-07-10T06:15:35;14.40;99.90
31542;DHT22;18152;49.986;8.646;2022-07-10T06:18:01;14.60;99.90
31542;DHT22;18152;49.986;8.646;2022-07-10T06:20:26;14.60;99.90
31542;DHT22;18152;49.986;8.646;2022-07-10T06:22:52;15.00;99.90
31542;DHT22;18152;49.986;8.646;2022-07-10T06:25:18;14.90;99.90
31542;DHT22;18152;49.986;8.646;2022-07-10T06:27:43;15.00;99.90
31542;DHT22;18152;49.986;8.646;2022-07-10T06:30:09;15.20;99.90
31542;DHT22;18152;49.986;8.646;2022-07-10T06:32:35;15.20;99.90
31542;DHT22;18152;49.986;8.646;2022-07-10T06:35:02;15.20;99.90
31542;DHT22;18152;49.986;8.646;2022-07-10T06:37:29;15.40;99.90
31542;DHT22;18152;49.986;8.646;2022-07-10T06:39:55;15.20;99.90
31542;DHT22;18152;49.986;8.646;2022-07-10T06:42:21;15.10;99.90
31542;DHT22;18152;49.986;8.646;2022-07-10T06:44:46;15.00;99.90
31542;DHT22;18152;49.986;8.646;2022-07-10T06:47:14;14.90;99.90
31542;DHT22;18152;49.986;8.646;2022-07-10T06:49:59;15.00;99.90
31542;DHT22;18152;49.986;8.646;2022-07-10T06:52:25;15.30;99.90
31542;DHT22;18152;49.986;8.646;2022-07-10T06:54:52;15.40;99.90
31542;DHT22;18152;49.986;8.646;2022-07-10T06:57:18;15.70;99.90
31542;DHT22;18152;49.986;8.646;2022-07-10T06:59:45;15.70;99.90
31542;DHT22;18152;49.986;8.646;2022-07-10T07:02:10;16.00;99.90
31542;DHT22;18152;49.986;8.646;2022-07-10T07:04:36;15.90;99.90
31542;DHT22;18152;49.986;8.646;2022-07-10T07:07:02;16.00;99.90
31542;DHT22;18152;49.986;8.646;2022-07-10T07:09:28;16.00;99.90
31542;DHT22;18152;49.986;8.646;2022-07-10T07:11:54;16.10;99.90
31542;DHT22;18152;49.986;8.646;2022-07-10T07:14:19;16.10;99.90
31542;DHT22;18152;49.986;8.646;2022-07-10T07:16:45;16.30;99.90
31542;DHT22;18152;49.986;8.646;2022-07-10T07:19:12;16.20;99.90
31542;DHT22;18152;49.986;8.646;2022-07-10T07:21:43;16.30;99.90
31542;DHT22;18152;49.986;8.646;2022-07-10T07:24:28;16.70;99.90
31542;DHT22;18152;49.986;8.646;2022-07-10T07:26:54;16.90;99.90
31542;DHT22;18152;49.986;8.646;2022-07-10T07:29:19;16.80;99.90
31542;DHT22;18152;49.986;8.646;2022-07-10T07:31:45;16.60;99.90
31542;DHT22;18152;49.986;8.646;2022-07-10T07:34:11;16.60;99.90
31542;DHT22;18152;49.986;8.646;2022-07-10T07:36:37;16.60;99.90
31542;DHT22;18152;49.986;8.646;2022-07-10T07:39:03;16.50;99.90
31542;DHT22;18152;49.986;8.646;2022-07-10T07:41:29;16.60;99.90
31542;DHT22;18152;49.986;8.646;2022-07-10T07:43:54;16.40;99.90
31542;DHT22;18152;49.986;8.646;2022-07-10T07:46:20;16.20;99.90
31542;DHT22;18152;49.986;8.646;2022-07-10T07:48:46;16.20;99.90
31542;DHT22;18152;49.986;8.646;2022-07-10T07:51:12;16.50;99.90
31542;DHT22;18152;49.986;8.646;2022-07-10T07:53:38;16.50;99.90
31542;DHT22;18152;49.986;8.646;2022-07-10T07:56:04;16.70;99.90
31542;DHT22;18152;49.986;8.646;2022-07-10T07:58:30;16.70;99.90
31542;DHT22;18152;49.986;8.646;2022-07-10T08:00:55;16.50;99.90
31542;DHT22;18152;49.986;8.646;2022-07-10T08:03:22;16.50;99.90
31542;DHT22;18152;49.986;8.646;2022-07-10T08:05:47;16.40;99.90
31542;DHT22;18152;49.986;8.646;2022-07-10T08:08:13;16.60;99.90
31542;DHT22;18152;49.986;8.646;2022-07-10T08:10:39;16.70;99.90
31542;DHT22;18152;49.986;8.646;2022-07-10T08:13:04;16.60;99.90
31542;DHT22;18152;49.986;8.646;2022-07-10T08:15:31;16.50;99.90
31542;DHT22;18152;49.986;8.646;2022-07-10T08:17:58;16.30;99.90
31542;DHT22;18152;49.986;8.646;2022-07-10T08:20:26;16.40;99.90
31542;DHT22;18152;49.986;8.646;2022-07-10T08:22:52;16.50;99.90
31542;DHT22;18152;49.986;8.646;2022-07-10T08:25:19;16.80;99.90
31542;DHT22;18152;49.986;8.646;2022-07-10T08:27:46;17.20;99.40
31542;DHT22;18152;49.986;8.646;2022-07-10T08:30:12;17.30;99.90
31542;DHT22;18152;49.986;8.646;2022-07-10T08:32:38;17.30;99.90
31542;DHT22;18152;49.986;8.646;2022-07-10T08:35:05;17.20;99.90
31542;DHT22;18152;49.986;8.646;2022-07-10T08:37:41;17.30;99.90
31542;DHT22;18152;49.986;8.646;2022-07-10T08:40:11;17.40;99.90
31542;DHT22;18152;49.986;8.646;2022-07-10T08:42:38;17.30;99.90
31542;DHT22;18152;49.986;8.646;2022-07-10T08:45:04;17.30;99.90
31542;DHT22;18152;49.986;8.646;2022-07-10T08:47:34;17.30;99.90
31542;DHT22;18152;49.986;8.646;2022-07-10T08:49:59;17.20;99.90
31542;DHT22;18152;49.986;8.646;2022-07-10T08:52:29;17.50;99.90
31542;DHT22;18152;49.986;8.646;2022-07-10T08:54:57;17.70;99.90
31542;DHT22;18152;49.986;8.646;2022-07-10T08:57:23;17.80;99.90
31542;DHT22;18152;49.986;8.646;2022-07-10T08:59:50;18.30;98.00
31542;DHT22;18152;49.986;8.646;2022-07-10T09:02:15;18.40;97.90
31542;DHT22;18152;49.986;8.646;2022-07-10T09:04:41;18.40;99.90
31542;DHT22;18152;49.986;8.646;2022-07-10T09:07:07;18.70;96.00
31542;DHT22;18152;49.986;8.646;2022-07-10T09:09:53;18.50;95.10
31542;DHT22;18152;49.986;8.646;2022-07-10T09:12:21;18.60;94.20
31542;DHT22;18152;49.986;8.646;2022-07-10T09:14:47;18.50;96.30
31542;DHT22;18152;49.986;8.646;2022-07-10T09:17:13;18.40;95.50
31542;DHT22;18152;49.986;8.646;2022-07-10T09:19:39;18.20;94.30
31542;DHT22;18152;49.986;8.646;2022-07-10T09:24:44;17.90;96.40
31542;DHT22;18152;49.986;8.646;2022-07-10T09:27:12;18.00;99.90
31542;DHT22;18152;49.986;8.646;2022-07-10T09:32:15;18.20;99.90
31542;DHT22;18152;49.986;8.646;2022-07-10T09:40:03;18.10;99.90
31542;DHT22;18152;49.986;8.646;2022-07-10T09:47:40;18.80;99.90
31542;DHT22;18152;49.986;8.646;2022-07-10T09:50:26;18.60;99.90
31542;DHT22;18152;49.986;8.646;2022-07-10T09:52:57;18.40;99.90
31542;DHT22;18152;49.986;8.646;2022-07-10T09:55:25;18.40;99.90
31542;DHT22;18152;49.986;8.646;2022-07-10T09:58:00;18.00;99.90
31542;DHT22;18152;49.986;8.646;2022-07-10T10:00:28;17.80;99.90
31542;DHT22;18152;49.986;8.646;2022-07-10T10:02:56;17.60;99.90
31542;DHT22;18152;49.986;8.646;2022-07-10T10:05:30;17.60;99.90
31542;DHT22;18152;49.986;8.646;2022-07-10T10:08:00;17.40;99.90
31542;DHT22;18152;49.986;8.646;2022-07-10T10:10:27;17.40;99.90
31542;DHT22;18152;49.986;8.646;2022-07-10T10:12:59;17.30;99.90
31542;DHT22;18152;49.986;8.646;2022-07-10T10:15:27;17.50;99.90
31542;DHT22;18152;49.986;8.646;2022-07-10T10:17:56;17.50;99.90
31542;DHT22;18152;49.986;8.646;2022-07-10T10:20:23;17.40;99.90
31542;DHT22;18152;49.986;8.646;2022-07-10T10:23:10;17.50;99.90
31542;DHT22;18152;49.986;8.646;2022-07-10T10:25:39;17.70;99.90
31542;DHT22;18152;49.986;8.646;2022-07-10T10:28:08;18.00;99.90
31542;DHT22;18152;49.986;8.646;2022-07-10T10:30:41;18.40;99.90
31542;DHT22;18152;49.986;8.646;2022-07-10T10:36:03;19.30;99.90
31542;DHT22;18152;49.986;8.646;2022-07-10T10:41:26;19.80;95.80
31542;DHT22;18152;49.986;8.646;2022-07-10T10:49:17;18.60;97.50
31542;DHT22;18152;49.986;8.646;2022-07-10T10:52:00;18.20;99.70
31542;DHT22;18152;49.986;8.646;2022-07-10T10:54:30;18.00;99.90
31542;DHT22;18152;49.986;8.646;2022-07-10T10:57:13;17.90;99.90
31542;DHT22;18152;49.986;8.646;2022-07-10T10:59:50;18.00;99.90
31542;DHT22;18152;49.986;8.646;2022-07-10T11:02:26;17.80;99.90
31542;DHT22;18152;49.986;8.646;2022-07-10T11:08:00;17.90;99.90
31542;DHT22;18152;49.986;8.646;2022-07-10T11:15:57;18.70;99.90
31542;DHT22;18152;49.986;8.646;2022-07-10T11:18:23;18.80;99.90
31542;DHT22;18152;49.986;8.646;2022-07-10T11:20:53;18.80;99.10
31542;DHT22;18152;49.986;8.646;2022-07-10T11:23:49;18.90;99.80
31542;DHT22;18152;49.986;8.646;2022-07-10T11:31:18;19.70;99.90
31542;DHT22;18152;49.986;8.646;2022-07-10T11:33:45;19.90;99.60
31542;DHT22;18152;49.986;8.646;2022-07-10T11:36:18;20.30;99.70
31542;DHT22;18152;49.986;8.646;2022-07-10T11:38:45;20.20;99.90
31542;DHT22;18152;49.986;8.646;2022-07-10T11:41:14;19.80;99.60
31542;DHT22;18152;49.986;8.646;2022-07-10T11:43:54;19.50;99.90
31542;DHT22;18152;49.986;8.646;2022-07-10T11:46:22;19.20;99.90
31542;DHT22;18152;49.986;8.646;2022-07-10T11:48:49;19.50;99.90
31542;DHT22;18152;49.986;8.646;2022-07-10T11:54:03;20.30;99.80
31542;DHT22;18152;49.986;8.646;2022-07-10T11:56:35;20.20;99.30
31542;DHT22;18152;49.986;8.646;2022-07-10T11:59:04;20.10;90.90
31542;DHT22;18152;49.986;8.646;2022-07-10T12:01:32;20.50;93.70
31542;DHT22;18152;49.986;8.646;2022-07-10T12:04:05;20.60;95.70
31542;DHT22;18152;49.986;8.646;2022-07-10T12:06:33;20.40;97.90
31542;DHT22;18152;49.986;8.646;2022-07-10T12:09:18;20.20;97.10
31542;DHT22;18152;49.986;8.646;2022-07-10T12:12:05;20.00;95.60
31542;DHT22;18152;49.986;8.646;2022-07-10T12:14:32;19.70;97.30
31542;DHT22;18152;49.986;8.646;2022-07-10T12:16:59;19.50;99.90
31542;DHT22;18152;49.986;8.646;2022-07-10T12:19:30;19.10;99.70
31542;DHT22;18152;49.986;8.646;2022-07-10T12:21:58;19.00;99.90
31542;DHT22;18152;49.986;8.646;2022-07-10T12:24:25;19.10;99.90
31542;DHT22;18152;49.986;8.646;2022-07-10T12:26:53;19.20;98.50
31542;DHT22;18152;49.986;8.646;2022-07-10T12:29:25;19.30;99.90
31542;DHT22;18152;49.986;8.646;2022-07-10T12:31:58;19.20;99.90
31542;DHT22;18152;49.986;8.646;2022-07-10T12:34:52;19.30;99.90
31542;DHT22;18152;49.986;8.646;2022-07-10T12:37:23;19.40;98.10
31542;DHT22;18152;49.986;8.646;2022-07-10T12:39:51;19.40;97.10
31542;DHT22;18152;49.986;8.646;2022-07-10T12:42:27;19.40;99.90
31542;DHT22;18152;49.986;8.646;2022-07-10T12:44:53;19.30;99.90
31542;DHT22;18152;49.986;8.646;2022-07-10T12:47:20;19.30;99.90
31542;DHT22;18152;49.986;8.646;2022-07-10T12:52:31;19.00;99.90
31542;DHT22;18152;49.986;8.646;2022-07-10T12:57:55;19.00;99.90
31542;DHT22;18152;49.986;8.646;2022-07-10T13:00:32;19.00;99.90
31542;DHT22;18152;49.986;8.646;2022-07-10T13:03:09;19.10;99.30
31542;DHT22;18152;49.986;8.646;2022-07-10T13:08:12;19.10;99.90
31542;DHT22;18152;49.986;8.646;2022-07-10T13:10:41;19.20;99.90
31542;DHT22;18152;49.986;8.646;2022-07-10T13:13:07;19.30;99.90
31542;DHT22;18152;49.986;8.646;2022-07-10T13:15:33;19.30;99.90
31542;DHT22;18152;49.986;8.646;2022-07-10T13:18:21;19.30;99.90
31542;DHT22;18152;49.986;8.646;2022-07-10T13:20:50;19.50;99.90
31542;DHT22;18152;49.986;8.646;2022-07-10T13:23:17;19.50;99.90
31542;DHT22;18152;49.986;8.646;2022-07-10T13:25:46;19.40;99.90
31542;DHT22;18152;49.986;8.646;2022-07-10T13:28:12;19.40;99.90
31542;DHT22;18152;49.986;8.646;2022-07-10T13:30:37;19.40;99.90
31542;DHT22;18152;49.986;8.646;2022-07-10T13:33:03;19.60;96.20
31542;DHT22;18152;49.986;8.646;2022-07-10T13:35:30;19.80;98.60
31542;DHT22;18152;49.986;8.646;2022-07-10T13:37:56;19.50;98.40
31542;DHT22;18152;49.986;8.646;2022-07-10T13:40:28;19.50;99.90
31542;DHT22;18152;49.986;8.646;2022-07-10T13:42:56;19.50;99.90
31542;DHT22;18152;49.986;8.646;2022-07-10T13:45:22;19.40;99.30
31542;DHT22;18152;49.986;8.646;2022-07-10T13:47:48;19.40;99.90
31542;DHT22;18152;49.986;8.646;2022-07-10T13:50:14;19.40;99.10
31542;DHT22;18152;49.986;8.646;2022-07-10T13:52:40;19.70;98.60
31542;DHT22;18152;49.986;8.646;2022-07-10T13:55:05;19.70;97.80
31542;DHT22;18152;49.986;8.646;2022-07-10T13:57:34;19.70;99.90
31542;DHT22;18152;49.986;8.646;2022-07-10T14:00:00;19.60;97.40
31542;DHT22;18152;49.986;8.646;2022-07-10T14:02:25;19.60;98.00
31542;DHT22;18152;49.986;8.646;2022-07-10T14:04:51;19.70;96.90
31542;DHT22;18152;49.986;8.646;2022-07-10T14:07:17;19.80;99.90
31542;DHT22;18152;49.986;8.646;2022-07-10T14:09:42;19.60;98.80
31542;DHT22;18152;49.986;8.646;2022-07-10T14:12:08;19.50;99.90
31542;DHT22;18152;49.986;8.646;2022-07-10T14:14:34;19.60;98.20
31542;DHT22;18152;49.986;8.646;2022-07-10T14:16:59;19.50;99.90
31542;DHT22;18152;49.986;8.646;2022-07-10T14:19:25;19.40;99.90
31542;DHT22;18152;49.986;8.646;2022-07-10T14:21:50;19.30;98.80
31542;DHT22;18152;49.986;8.646;2022-07-10T14:24:16;19.30;97.30
31542;DHT22;18152;49.986;8.646;2022-07-10T14:26:42;19.30;97.30
31542;DHT22;18152;49.986;8.646;2022-07-10T14:29:07;19.50;95.80
31542;DHT22;18152;49.986;8.646;2022-07-10T14:31:33;19.60;96.00
31542;DHT22;18152;49.986;8.646;2022-07-10T14:33:59;19.70;95.20
31542;DHT22;18152;49.986;8.646;2022-07-10T14:36:24;19.60;99.90
31542;DHT22;18152;49.986;8.646;2022-07-10T14:38:56;19.80;94.30
31542;DHT22;18152;49.986;8.646;2022-07-10T14:41:23;19.70;97.10
31542;DHT22;18152;49.986;8.646;2022-07-10T14:43:49;19.60;99.20
31542;DHT22;18152;49.986;8.646;2022-07-10T14:46:15;19.50;99.90
31542;DHT22;18152;49.986;8.646;2022-07-10T14:48:40;19.30;99.90
31542;DHT22;18152;49.986;8.646;2022-07-10T14:51:06;19.30;97.20
31542;DHT22;18152;49.986;8.646;2022-07-10T14:53:33;19.20;99.90
31542;DHT22;18152;49.986;8.646;2022-07-10T14:56:02;19.20;99.90
31542;DHT22;18152;49.986;8.646;2022-07-10T14:58:28;19.10;99.90
31542;DHT22;18152;49.986;8.646;2022-07-10T15:00:53;19.10;99.90
31542;DHT22;18152;49.986;8.646;2022-07-10T15:03:19;19.00;99.90
31542;DHT22;18152;49.986;8.646;2022-07-10T15:05:45;19.00;99.90
31542;DHT22;18152;49.986;8.646;2022-07-10T15:08:10;18.90;99.90
31542;DHT22;18152;49.986;8.646;2022-07-10T15:10:36;18.80;99.90
31542;DHT22;18152;49.986;8.646;2022-07-10T15:13:02;18.80;99.90
31542;DHT22;18152;49.986;8.646;2022-07-10T15:15:33;18.70;99.90
31542;DHT22;18152;49.986;8.646;2022-07-10T15:17:59;18.70;99.90
31542;DHT22;18152;49.986;8.646;2022-07-10T15:20:25;18.70;99.90
31542;DHT22;18152;49.986;8.646;2022-07-10T15:22:51;18.70;99.90
31542;DHT22;18152;49.986;8.646;2022-07-10T15:25:16;18.80;99.90
31542;DHT22;18152;49.986;8.646;2022-07-10T15:27:42;19.00;99.90
31542;DHT22;18152;49.986;8.646;2022-07-10T15:30:08;19.00;99.90
31542;DHT22;18152;49.986;8.646;2022-07-10T15:32:37;19.10;99.90
31542;DHT22;18152;49.986;8.646;2022-07-10T15:35:03;19.10;99.90
31542;DHT22;18152;49.986;8.646;2022-07-10T15:37:28;19.20;99.90
31542;DHT22;18152;49.986;8.646;2022-07-10T15:39:54;19.30;99.90
31542;DHT22;18152;49.986;8.646;2022-07-10T15:42:20;19.40;99.90
31542;DHT22;18152;49.986;8.646;2022-07-10T15:44:46;19.50;98.30
31542;DHT22;18152;49.986;8.646;2022-07-10T15:47:11;19.60;99.70
31542;DHT22;18152;49.986;8.646;2022-07-10T15:49:37;19.60;99.90
31542;DHT22;18152;49.986;8.646;2022-07-10T15:52:03;19.60;99.90
31542;DHT22;18152;49.986;8.646;2022-07-10T15:54:29;19.60;99.90
31542;DHT22;18152;49.986;8.646;2022-07-10T15:56:55;19.60;99.90
31542;DHT22;18152;49.986;8.646;2022-07-10T15:59:21;19.50;98.60
31542;DHT22;18152;49.986;8.646;2022-07-10T16:01:53;19.50;99.90
31542;DHT22;18152;49.986;8.646;2022-07-10T16:04:20;19.50;99.90
31542;DHT22;18152;49.986;8.646;2022-07-10T16:06:46;19.40;99.90
31542;DHT22;18152;49.986;8.646;2022-07-10T16:09:13;19.40;99.90
31542;DHT22;18152;49.986;8.646;2022-07-10T16:11:38;19.30;99.90
31542;DHT22;18152;49.986;8.646;2022-07-10T16:14:04;19.20;99.90
31542;DHT22;18152;49.986;8.646;2022-07-10T16:16:30;19.10;99.90
31542;DHT22;18152;49.986;8.646;2022-07-10T16:18:56;19.00;99.90
31542;DHT22;18152;49.986;8.646;2022-07-10T16:21:21;19.10;99.90
31542;DHT22;18152;49.986;8.646;2022-07-10T16:23:47;19.10;99.90